Boone, Colorado
Current Conditions -  °F | °C
As of 6:53 PM on Monday 20 Oct 2014 (Local Time) from KPUB Reporting Station
Clear Clear  
Wind Chill: 63°   Ceiling: Unl
Heat Index: 63°   Visibility: 10mi
Dew Point: 39°   Wind: 8mph
Humidity: 41%   Direction: 90°E
Pressure: 30.09"   Gusts: NA
Location:  38.25°N, 104.26°W
Report Text: KPUB 210053Z 09007KT 10SM CLR 17/04 A3009 RMK AO2 SLP163 T01720039
Loading
Personal Weather Stations






























Interactive Weather Map
Tropical Storm Tracking
New forecast layout! Learn more

10-Day Weather Forecast

Advertisements
Track Severe Weather on mobile